Observations for EXETER AIRPORT, United Kingdom (EGTE)

EGTE 230950Z 25002KT 9999 FEW025 20/09 Q1029
EGTE 230920Z VRB03KT 9999 FEW025 20/10 Q1030
EGTE 230850Z VRB03KT CAVOK 19/11 Q1030  
EGTE 230820Z VRB01KT CAVOK 18/11 Q1030  
EGTE 230750Z VRB01KT CAVOK 16/10 Q1030  
EGTE 230720Z VRB02KT CAVOK 15/09 Q1030  
EGTE 230650Z VRB01KT CAVOK 14/10 Q1030  
EGTE 230620Z VRB01KT CAVOK 12/09 Q1030  
EGTE 230550Z 35002KT CAVOK 11/08 Q1030  
EGTE 230520Z 04001KT CAVOK 10/08 Q1030  
EGTE 230450Z 07001KT CAVOK 07/06 Q1030  
EGTE 230420Z 04001KT CAVOK 08/07 Q1030  
EGTE 230150Z 07002KT CAVOK 09/08 Q1030  
EGTE 230120Z 34003KT CAVOK 15/04 Q1030  
EGTE 230050Z 07003KT CAVOK 15/04 Q1030  
EGTE 230020Z 07003KT CAVOK 10/08 Q1030  
EGTE 222350Z 07003KT CAVOK 11/08 Q1030  
EGTE 222320Z VRB02KT CAVOK 12/09 Q1030  
EGTE 222250Z 33004KT CAVOK 13/10 Q1030  
EGTE 222220Z 33004KT CAVOK 13/09 Q1030  
EGTE 222150Z VRB03KT CAVOK 14/09 Q1030  
EGTE 222120Z VRB01KT CAVOK 15/09 Q1030  
EGTE 222050Z 04005KT CAVOK 16/08 Q1030  
EGTE 222020Z 01004KT CAVOK 17/07 Q1030  
EGTE 221950Z 36005KT CAVOK 18/07 Q1030  
EGTE 221920Z 36005KT CAVOK 20/07 Q1029  
EGTE 221850Z 01004KT 320V030 CAVOK 21/06 Q1029  
EGTE 221820Z 35005G16KT 260V060 CAVOK 21/04 Q1029   
EGTE 221750Z 02004KT 320V070 9999 FEW045 22/05 Q1029
EGTE 221720Z 01006KT 330V050 9999 FEW025 21/03 Q1030
EGTE 221650Z 03007KT 330V070 CAVOK 21/04 Q1030  
EGTE 221620Z 36006KT CAVOK 22/04 Q1030  
EGTE 221550Z 36009KT CAVOK 21/04 Q1030  
EGTE 221520Z 04006KT 340V140 CAVOK 21/05 Q1030  
EGTE 221450Z VRB06KT CAVOK 21/05 Q1030  
EGTE 221420Z 06008KT 020V110 CAVOK 21/04 Q1030  
EGTE 221350Z 03009KT 340V070 CAVOK 20/03 Q1030  
EGTE 221320Z 02008KT 330V070 CAVOK 20/03 Q1031  
EGTE 221250Z 02008KT 320V070 CAVOK 21/06 Q1031  
EGTE 221220Z 04010KT 350V080 CAVOK 20/07 Q1031  
EGTE 221150Z 06006KT 010V130 CAVOK 20/07 Q1031  
EGTE 221120Z 05007KT 010V100 CAVOK 18/08 Q1031  
EGTE 221050Z 05006KT 330V090 CAVOK 17/06 Q1031  
EGTE 221020Z VRB06KT CAVOK 18/08 Q1031  
EGTE 220950Z 02008KT CAVOK 17/06 Q1031